Time;durP1;ratioP1;P1;durP2;ratioP2;P2;SDS_P1;SDS_P2;PMS_P1;PMS_P2;Temp;Humidity;BMP_temperature;BMP_pressure;BME280_temperature;BME280_humidity;BME280_pressure;Samples;Min_cycle;Max_cycle;Signal;HPM_P1;HPM_P2
2020/12/08 00:00:06;;;;;;;16.70;9.70;;;3.80;99.90;;;;;;5082188;28;20203;-77
2020/12/08 00:02:33;;;;;;;17.23;10.33;;;3.80;99.90;;;;;;5086886;28;20206;-77
2020/12/08 00:05:00;;;;;;;19.00;10.33;;;3.90;99.90;;;;;;5089495;28;20266;-77
2020/12/08 00:07:27;;;;;;;15.37;9.80;;;3.80;99.90;;;;;;5082802;28;20735;-77
2020/12/08 00:09:54;;;;;;;17.07;10.23;;;3.90;99.90;;;;;;5083047;28;21244;-77
2020/12/08 00:12:27;;;;;;;15.13;9.43;;;3.80;99.90;;;;;;5083122;28;20609;-77
2020/12/08 00:14:54;;;;;;;16.00;9.50;;;3.80;99.90;;;;;;5078578;28;20643;-77
2020/12/08 00:17:22;;;;;;;15.97;9.53;;;3.80;99.90;;;;;;5081877;28;20296;-78
2020/12/08 00:19:49;;;;;;;14.37;8.80;;;3.70;99.90;;;;;;5083856;28;20250;-77
2020/12/08 00:22:15;;;;;;;13.93;8.00;;;3.70;99.90;;;;;;5058811;28;20203;-77
2020/12/08 00:24:42;;;;;;;13.97;8.93;;;3.80;99.90;;;;;;5044704;28;20678;-77
2020/12/08 00:27:09;;;;;;;15.90;9.13;;;3.60;99.90;;;;;;5075978;28;20212;-76
2020/12/08 00:29:39;;;;;;;16.30;8.87;;;3.70;99.90;;;;;;5084766;28;20192;-77
2020/12/08 00:32:08;;;;;;;15.57;8.10;;;3.70;99.90;;;;;;5085815;28;20567;-76
2020/12/08 00:34:38;;;;;;;16.10;9.10;;;3.70;99.90;;;;;;5084262;28;20297;-76
2020/12/08 00:37:05;;;;;;;13.30;8.60;;;3.70;99.90;;;;;;5068220;28;20209;-76
2020/12/08 00:39:32;;;;;;;14.07;8.73;;;3.80;99.90;;;;;;5067143;28;20794;-76
2020/12/08 00:41:59;;;;;;;13.40;8.90;;;3.80;99.90;;;;;;5066632;28;20199;-76
2020/12/08 00:44:25;;;;;;;12.17;8.30;;;3.80;99.90;;;;;;5074347;28;20202;-76
2020/12/08 00:46:52;;;;;;;12.00;7.83;;;3.80;99.90;;;;;;5053406;28;20604;-76
2020/12/08 00:49:19;;;;;;;12.93;8.53;;;3.80;99.90;;;;;;5072256;28;20526;-76
2020/12/08 00:51:45;;;;;;;17.40;8.93;;;3.80;99.90;;;;;;5080846;28;20223;-76
2020/12/08 00:54:12;;;;;;;12.20;8.13;;;3.90;99.90;;;;;;5088263;28;20220;-77
2020/12/08 00:56:41;;;;;;;17.63;9.70;;;4.00;99.90;;;;;;5083852;28;20262;-77
2020/12/08 00:59:13;;;;;;;14.33;8.10;;;3.80;99.90;;;;;;5090924;28;20199;-77
2020/12/08 01:01:41;;;;;;;15.53;8.27;;;4.00;99.90;;;;;;5059230;28;20205;-77
2020/12/08 01:04:10;;;;;;;14.90;8.57;;;4.20;99.90;;;;;;5084836;28;20194;-77
2020/12/08 01:06:41;;;;;;;12.27;8.20;;;4.10;99.90;;;;;;5084413;28;20530;-77
2020/12/08 01:09:08;;;;;;;14.97;8.33;;;4.10;99.90;;;;;;5087138;28;22511;-77
2020/12/08 01:11:44;;;;;;;13.77;7.83;;;4.00;99.90;;;;;;5047853;28;20207;-77
2020/12/08 01:14:13;;;;;;;15.87;8.27;;;4.10;99.90;;;;;;5077026;28;20230;-77
2020/12/08 01:16:42;;;;;;;12.70;8.73;;;4.00;99.90;;;;;;5062808;28;20207;-76
2020/12/08 01:19:09;;;;;;;12.40;8.17;;;3.80;99.90;;;;;;5071752;28;20294;-77
2020/12/08 01:21:35;;;;;;;14.47;7.70;;;4.00;99.90;;;;;;5040734;28;20206;-77
2020/12/08 01:24:01;;;;;;;11.70;7.97;;;4.00;99.90;;;;;;5047856;28;20235;-77
2020/12/08 01:26:28;;;;;;;13.77;8.63;;;3.80;99.90;;;;;;5047876;28;20242;-77
2020/12/08 01:28:56;;;;;;;16.83;9.63;;;3.90;99.90;;;;;;5042048;28;20199;-77
2020/12/08 01:31:31;;;;;;;15.90;8.70;;;4.10;99.90;;;;;;5045659;28;20207;-77
2020/12/08 01:33:57;;;;;;;15.00;9.27;;;4.00;99.90;;;;;;5059593;28;20295;-77
2020/12/08 01:36:25;;;;;;;13.00;7.93;;;4.10;99.90;;;;;;5025635;28;20199;-77
2020/12/08 01:38:51;;;;;;;13.23;9.30;;;4.10;99.90;;;;;;5051997;28;20197;-77
2020/12/08 01:41:17;;;;;;;11.20;8.37;;;4.10;99.90;;;;;;5029478;28;20566;-76
2020/12/08 01:43:55;;;;;;;15.57;9.10;;;3.90;99.90;;;;;;5026501;28;20248;-77
2020/12/08 01:46:26;;;;;;;13.80;8.23;;;3.90;99.90;;;;;;5031979;28;20891;-77
2020/12/08 01:48:54;;;;;;;12.80;8.33;;;3.90;99.90;;;;;;5052138;28;21706;-76
2020/12/08 01:51:21;;;;;;;13.27;7.83;;;3.90;99.90;;;;;;5041939;28;20188;-77
2020/12/08 01:53:50;;;;;;;12.73;8.30;;;3.90;99.90;;;;;;5046248;28;20197;-77
2020/12/08 01:56:18;;;;;;;11.47;8.07;;;3.80;99.90;;;;;;5042847;28;20254;-77
2020/12/08 01:58:45;;;;;;;14.70;9.20;;;3.80;99.90;;;;;;5052076;28;20212;-77
2020/12/08 02:01:14;;;;;;;15.33;8.63;;;3.80;99.90;;;;;;5065070;28;20566;-77
2020/12/08 02:03:41;;;;;;;13.43;8.60;;;3.80;99.90;;;;;;5073919;28;20239;-77
2020/12/08 02:06:08;;;;;;;12.87;8.20;;;3.70;99.90;;;;;;5051512;28;20195;-77
2020/12/08 02:08:36;;;;;;;15.70;8.50;;;3.70;99.90;;;;;;5046567;28;20233;-77
2020/12/08 02:11:05;;;;;;;12.23;7.60;;;3.70;99.90;;;;;;5046369;28;20197;-77
2020/12/08 02:13:31;;;;;;;15.30;8.00;;;3.70;99.90;;;;;;5032473;28;20228;-76
2020/12/08 02:15:58;;;;;;;14.27;7.47;;;3.70;99.90;;;;;;5043202;28;20246;-76
2020/12/08 02:18:24;;;;;;;14.53;8.43;;;3.60;99.90;;;;;;5036927;28;20196;-76
2020/12/08 02:21:04;;;;;;;15.73;8.57;;;3.60;99.90;;;;;;5083685;28;20607;-76
2020/12/08 02:23:33;;;;;;;10.50;7.43;;;3.60;99.90;;;;;;5076542;28;20208;-76
2020/12/08 02:26:02;;;;;;;14.53;7.30;;;3.50;99.90;;;;;;5092018;28;20234;-77
2020/12/08 02:28:30;;;;;;;13.03;7.77;;;3.50;99.90;;;;;;5075182;28;20226;-76
2020/12/08 02:30:56;;;;;;;11.27;7.47;;;3.50;99.90;;;;;;5068514;28;20347;-76
2020/12/08 02:33:28;;;;;;;12.67;7.67;;;3.50;99.90;;;;;;5070939;28;20204;-76
2020/12/08 02:35:57;;;;;;;9.90;7.10;;;3.50;99.90;;;;;;5070889;28;20599;-76
2020/12/08 02:38:25;;;;;;;16.20;8.30;;;3.50;99.90;;;;;;5075433;28;20213;-76
2020/12/08 02:40:55;;;;;;;15.07;8.37;;;3.50;99.90;;;;;;5089798;28;20215;-76
2020/12/08 02:43:22;;;;;;;13.73;8.13;;;3.50;99.90;;;;;;5070403;28;20195;-76
2020/12/08 02:45:49;;;;;;;11.57;7.53;;;3.50;99.90;;;;;;5091321;28;20195;-76
2020/12/08 02:48:16;;;;;;;13.17;7.37;;;3.40;99.90;;;;;;5068704;28;20215;-76
2020/12/08 02:50:57;;;;;;;15.33;8.40;;;3.50;99.90;;;;;;5072988;28;20204;-76
2020/12/08 02:53:24;;;;;;;12.30;8.00;;;3.50;99.90;;;;;;5091171;28;22115;-76
2020/12/08 02:55:50;;;;;;;12.30;7.20;;;3.40;99.90;;;;;;5066071;28;20265;-76
2020/12/08 02:58:17;;;;;;;10.97;7.43;;;3.40;99.90;;;;;;5067306;28;20196;-76
2020/12/08 03:00:43;;;;;;;13.10;6.97;;;3.40;99.90;;;;;;5064833;28;20246;-76
2020/12/08 03:03:09;;;;;;;10.27;6.53;;;3.40;99.90;;;;;;5069776;28;20244;-77
2020/12/08 03:05:36;;;;;;;12.20;7.10;;;3.20;99.90;;;;;;5087824;28;20279;-77
2020/12/08 03:08:03;;;;;;;14.50;8.47;;;3.20;99.90;;;;;;5070677;28;20232;-76
2020/12/08 03:10:29;;;;;;;13.27;7.37;;;3.00;99.90;;;;;;5086542;28;20237;-77
2020/12/08 03:12:55;;;;;;;13.53;7.40;;;3.00;99.90;;;;;;5065801;28;20242;-76
2020/12/08 03:15:22;;;;;;;13.87;7.83;;;2.80;99.90;;;;;;5073523;28;20286;-77
2020/12/08 03:17:49;;;;;;;14.00;7.40;;;2.80;99.90;;;;;;5084072;28;20195;-76
2020/12/08 03:20:15;;;;;;;11.40;7.17;;;2.80;99.90;;;;;;5056521;28;20303;-76
2020/12/08 03:22:41;;;;;;;13.07;7.47;;;2.90;99.90;;;;;;5073423;28;20245;-77
2020/12/08 03:25:07;;;;;;;11.00;7.13;;;3.00;99.90;;;;;;5060881;28;20971;-77
2020/12/08 03:27:36;;;;;;;11.23;7.40;;;3.00;99.90;;;;;;5066796;28;20401;-76
2020/12/08 03:30:05;;;;;;;14.60;7.73;;;3.00;99.90;;;;;;5070974;28;20204;-76
2020/12/08 03:32:31;;;;;;;16.23;8.20;;;2.90;99.90;;;;;;5050828;28;20583;-77
2020/12/08 03:34:58;;;;;;;13.57;7.57;;;2.90;99.90;;;;;;5048230;28;20203;-77
2020/12/08 03:37:24;;;;;;;12.03;6.60;;;2.90;99.90;;;;;;5065095;28;20264;-77
2020/12/08 03:39:51;;;;;;;13.90;7.70;;;2.80;99.90;;;;;;5032507;28;20261;-77
2020/12/08 03:42:17;;;;;;;14.17;7.93;;;2.90;99.90;;;;;;5065942;28;21195;-76
2020/12/08 03:44:43;;;;;;;14.30;7.27;;;2.80;99.90;;;;;;5059602;28;20211;-76
2020/12/08 03:47:10;;;;;;;13.87;6.93;;;2.80;99.90;;;;;;5063949;28;20283;-76
2020/12/08 03:49:36;;;;;;;11.20;6.80;;;2.80;99.90;;;;;;5068601;28;20202;-76
2020/12/08 03:52:02;;;;;;;13.17;6.67;;;2.60;99.90;;;;;;5061056;28;21092;-77
2020/12/08 03:54:29;;;;;;;15.17;7.73;;;2.50;99.90;;;;;;5084370;28;20268;-76
2020/12/08 03:56:55;;;;;;;12.40;7.33;;;2.30;99.90;;;;;;5058068;28;20231;-77
2020/12/08 03:59:22;;;;;;;15.70;7.33;;;2.20;99.90;;;;;;5055126;28;20302;-76
2020/12/08 04:01:52;;;;;;;12.53;7.20;;;2.20;99.90;;;;;;5068331;28;20201;-76
2020/12/08 04:04:19;;;;;;;15.00;8.33;;;2.30;99.90;;;;;;5066028;28;20666;-76
2020/12/08 04:06:46;;;;;;;14.63;7.50;;;2.20;99.90;;;;;;5067059;28;20245;-76
2020/12/08 04:09:14;;;;;;;12.23;7.23;;;2.30;99.90;;;;;;5066670;28;20264;-76
2020/12/08 04:11:40;;;;;;;15.13;7.77;;;2.20;99.90;;;;;;5059189;28;20574;-76
2020/12/08 04:14:06;;;;;;;12.97;7.83;;;2.20;99.90;;;;;;5055177;28;20202;-76
2020/12/08 04:16:33;;;;;;;12.50;8.00;;;2.20;99.90;;;;;;5083778;28;20210;-76
2020/12/08 04:19:00;;;;;;;14.40;7.33;;;2.10;99.90;;;;;;5072327;28;20289;-77
2020/12/08 04:21:28;;;;;;;12.03;7.37;;;2.20;99.90;;;;;;5055937;28;20262;-76
2020/12/08 04:24:04;;;;;;;13.40;7.70;;;2.30;99.90;;;;;;5082231;28;20202;-76
2020/12/08 04:26:32;;;;;;;15.60;8.13;;;2.20;99.90;;;;;;5085941;28;20250;-76
2020/12/08 04:29:00;;;;;;;13.53;8.10;;;2.30;99.90;;;;;;5088928;28;20517;-76
2020/12/08 04:31:27;;;;;;;14.33;7.27;;;2.20;99.90;;;;;;5085720;28;20196;-76
2020/12/08 04:33:54;;;;;;;12.20;7.80;;;2.20;99.90;;;;;;5085923;28;20386;-76
2020/12/08 04:36:22;;;;;;;13.80;7.63;;;2.10;99.90;;;;;;5075886;28;20260;-76
2020/12/08 04:38:49;;;;;;;12.50;8.00;;;2.20;99.90;;;;;;5062618;28;20203;-76
2020/12/08 04:41:24;;;;;;;13.80;7.77;;;2.30;99.90;;;;;;5084451;28;20590;-76
2020/12/08 04:43:51;;;;;;;13.30;7.17;;;2.30;99.90;;;;;;5088808;28;20332;-77
2020/12/08 04:46:22;;;;;;;17.13;8.10;;;2.40;99.90;;;;;;5083081;28;20290;-76
2020/12/08 04:48:50;;;;;;;15.53;8.63;;;2.40;99.90;;;;;;5088903;28;20218;-76
2020/12/08 04:51:17;;;;;;;11.57;7.60;;;2.50;99.90;;;;;;5083901;28;20191;-76
2020/12/08 04:53:45;;;;;;;17.30;7.73;;;2.50;99.90;;;;;;5078992;28;20234;-76
2020/12/08 04:56:13;;;;;;;11.80;6.97;;;2.50;99.90;;;;;;5089412;28;20191;-76
2020/12/08 04:58:42;;;;;;;13.07;7.03;;;2.60;99.90;;;;;;5078716;28;20242;-76
2020/12/08 05:01:09;;;;;;;13.50;8.13;;;2.50;99.90;;;;;;5070244;28;20245;-76
2020/12/08 05:03:40;;;;;;;14.07;8.40;;;2.50;99.90;;;;;;5058206;28;20201;-76
2020/12/08 05:06:13;;;;;;;13.50;8.20;;;2.40;99.90;;;;;;5079918;28;20638;-76
2020/12/08 05:08:40;;;;;;;15.03;8.20;;;2.50;99.90;;;;;;5089960;28;20284;-76
2020/12/08 05:11:08;;;;;;;14.87;8.10;;;2.20;99.90;;;;;;5086237;28;20191;-76
2020/12/08 05:13:34;;;;;;;16.33;7.90;;;2.10;99.90;;;;;;5090960;28;20225;-76
2020/12/08 05:16:05;;;;;;;15.27;7.43;;;2.10;99.90;;;;;;5056888;28;20190;-76
2020/12/08 05:18:34;;;;;;;13.27;8.37;;;2.10;99.90;;;;;;5083988;28;20214;-76
2020/12/08 05:21:10;;;;;;;12.17;7.67;;;2.20;99.90;;;;;;5084439;28;20245;-76
2020/12/08 05:23:45;;;;;;;9.63;7.10;;;2.30;99.90;;;;;;5081028;28;20232;-76
2020/12/08 05:26:15;;;;;;;17.30;8.30;;;2.20;99.90;;;;;;5082514;28;20213;-76
2020/12/08 05:28:43;;;;;;;19.10;7.77;;;2.30;99.90;;;;;;5087412;28;20936;-76
2020/12/08 05:31:10;;;;;;;15.07;8.23;;;2.50;99.90;;;;;;5086864;28;20250;-76
2020/12/08 05:33:39;;;;;;;12.90;6.97;;;2.50;99.90;;;;;;5085390;28;20207;-76
2020/12/08 05:36:06;;;;;;;11.70;8.07;;;2.60;99.90;;;;;;5083463;28;20211;-76
2020/12/08 05:38:37;;;;;;;12.80;7.77;;;2.70;99.90;;;;;;5090557;28;20369;-75
2020/12/08 05:41:06;;;;;;;16.07;7.80;;;2.70;99.90;;;;;;5086437;28;20308;-75
2020/12/08 05:43:38;;;;;;;14.50;7.97;;;2.80;99.90;;;;;;5085035;28;20217;-75
2020/12/08 05:46:06;;;;;;;11.20;8.10;;;2.90;99.90;;;;;;5083911;28;20245;-76
2020/12/08 05:48:34;;;;;;;13.13;7.87;;;3.00;99.90;;;;;;5086135;28;20239;-76
2020/12/08 05:51:06;;;;;;;12.63;7.97;;;2.90;99.90;;;;;;5089387;28;20654;-76
2020/12/08 05:53:32;;;;;;;12.87;7.80;;;2.80;99.90;;;;;;5083866;28;20236;-76
2020/12/08 05:56:17;;;;;;;18.10;8.80;;;2.70;99.90;;;;;;5093050;28;20240;-76
2020/12/08 05:58:53;;;;;;;12.43;8.23;;;2.70;99.90;;;;;;5071737;28;20206;-75
2020/12/08 06:01:20;;;;;;;16.67;8.10;;;2.70;99.90;;;;;;5072608;28;20221;-76
2020/12/08 06:03:53;;;;;;;11.70;7.63;;;2.70;99.90;;;;;;5056540;28;20259;-75
2020/12/08 06:06:20;;;;;;;14.37;8.27;;;2.70;99.90;;;;;;5069552;28;20203;-76
2020/12/08 06:08:48;;;;;;;14.23;8.20;;;2.70;99.90;;;;;;5060476;28;20202;-76
2020/12/08 06:11:15;;;;;;;14.63;8.57;;;2.70;99.90;;;;;;5070807;28;20792;-76
2020/12/08 06:13:48;;;;;;;15.50;8.20;;;2.60;99.90;;;;;;5060039;28;20187;-76
2020/12/08 06:16:19;;;;;;;15.53;8.63;;;2.70;99.90;;;;;;5069513;28;20529;-76
2020/12/08 06:18:46;;;;;;;13.90;8.53;;;2.80;99.90;;;;;;5070031;28;20248;-76
2020/12/08 06:21:21;;;;;;;15.00;9.10;;;2.90;99.90;;;;;;5060240;28;20720;-76
2020/12/08 06:23:55;;;;;;;14.03;8.50;;;3.00;99.90;;;;;;5091865;28;20226;-75
2020/12/08 06:26:30;;;;;;;16.17;8.33;;;3.20;99.90;;;;;;5088383;28;20520;-76
2020/12/08 06:28:56;;;;;;;15.07;8.80;;;3.30;99.90;;;;;;5093983;28;20194;-75
2020/12/08 06:31:24;;;;;;;12.83;8.57;;;3.30;99.90;;;;;;5071678;28;20238;-76
2020/12/08 06:33:56;;;;;;;13.87;7.90;;;3.30;99.90;;;;;;5053270;28;20195;-77
2020/12/08 06:36:24;;;;;;;15.20;8.33;;;3.10;99.90;;;;;;5065752;28;20207;-77
2020/12/08 06:38:58;;;;;;;15.00;8.87;;;3.00;99.90;;;;;;5088664;28;20623;-76
2020/12/08 06:41:32;;;;;;;14.97;8.63;;;3.20;99.90;;;;;;5065665;28;20242;-77
2020/12/08 06:44:00;;;;;;;14.00;8.60;;;3.10;99.90;;;;;;5096904;28;20563;-77
2020/12/08 06:46:31;;;;;;;16.13;9.70;;;3.10;99.90;;;;;;5074946;28;20202;-77
2020/12/08 06:49:06;;;;;;;14.97;8.53;;;3.20;99.90;;;;;;5065051;28;20226;-77
2020/12/08 06:51:34;;;;;;;15.90;7.67;;;3.20;99.90;;;;;;5070061;28;20210;-76
2020/12/08 06:54:14;;;;;;;18.27;9.10;;;3.30;99.90;;;;;;5066277;28;20256;-77
2020/12/08 06:56:41;;;;;;;15.47;9.63;;;3.30;99.90;;;;;;5056246;28;20631;-76
2020/12/08 06:59:08;;;;;;;15.93;9.13;;;3.20;99.90;;;;;;5078961;28;20268;-76
2020/12/08 07:01:35;;;;;;;16.07;9.27;;;3.10;99.90;;;;;;5057061;28;20891;-77
2020/12/08 07:04:02;;;;;;;18.23;9.97;;;3.10;99.90;;;;;;5068759;28;20612;-76
2020/12/08 07:06:28;;;;;;;16.83;9.37;;;3.20;99.90;;;;;;5057523;28;20214;-76
2020/12/08 07:08:55;;;;;;;15.00;9.33;;;3.30;99.90;;;;;;5073067;28;20648;-77
2020/12/08 07:11:23;;;;;;;17.50;10.03;;;3.40;99.90;;;;;;5060696;28;20638;-76
2020/12/08 07:13:57;;;;;;;20.00;10.17;;;3.30;99.90;;;;;;5068780;28;20259;-76
2020/12/08 07:16:26;;;;;;;16.07;8.70;;;3.30;99.90;;;;;;5066861;28;20234;-77
2020/12/08 07:18:53;;;;;;;16.40;8.53;;;3.40;99.90;;;;;;5070173;28;20199;-76
2020/12/08 07:21:20;;;;;;;16.00;9.97;;;3.50;99.90;;;;;;5067450;28;20693;-76
2020/12/08 07:24:04;;;;;;;16.63;9.40;;;3.50;99.90;;;;;;5086647;28;21274;-77
2020/12/08 07:26:31;;;;;;;14.63;8.63;;;3.40;99.90;;;;;;5069035;28;20203;-76
2020/12/08 07:28:58;;;;;;;19.30;10.47;;;3.50;99.90;;;;;;5063612;28;20199;-76
2020/12/08 07:31:27;;;;;;;13.77;9.67;;;3.50;99.90;;;;;;5089674;28;20340;-76
2020/12/08 07:33:54;;;;;;;15.17;9.57;;;3.50;99.90;;;;;;5074905;28;20263;-76
2020/12/08 07:36:30;;;;;;;19.33;9.90;;;3.60;99.90;;;;;;5036696;28;20206;-77
2020/12/08 07:38:59;;;;;;;15.80;9.17;;;3.60;99.90;;;;;;5064205;28;20625;-78
2020/12/08 07:41:27;;;;;;;17.80;10.27;;;3.70;99.90;;;;;;5071531;28;20201;-79
2020/12/08 07:43:54;;;;;;;17.20;9.90;;;3.70;99.90;;;;;;5058307;28;20203;-79
2020/12/08 07:46:24;;;;;;;17.93;10.23;;;3.70;99.90;;;;;;5071532;28;20194;-79
2020/12/08 07:49:07;;;;;;;15.17;8.97;;;3.80;99.90;;;;;;5067422;28;20281;-79
2020/12/08 07:51:36;;;;;;;18.27;10.73;;;3.80;99.90;;;;;;5090964;28;20226;-81
2020/12/08 07:54:04;;;;;;;16.23;9.70;;;3.90;99.90;;;;;;5084134;28;20256;-80
2020/12/08 07:56:33;;;;;;;14.13;9.67;;;3.90;99.90;;;;;;5066893;28;20197;-76
2020/12/08 07:59:00;;;;;;;14.80;9.27;;;3.90;99.90;;;;;;5078267;28;20218;-76
2020/12/08 08:01:27;;;;;;;15.23;9.43;;;3.90;99.90;;;;;;5089443;28;20599;-77
2020/12/08 08:03:54;;;;;;;18.13;10.20;;;3.90;99.90;;;;;;5069590;28;20201;-74
2020/12/08 08:06:22;;;;;;;19.47;9.27;;;4.00;99.90;;;;;;5071841;28;20274;-75
2020/12/08 08:08:49;;;;;;;15.77;10.10;;;4.00;99.90;;;;;;5050180;28;20259;-74
2020/12/08 08:11:17;;;;;;;16.17;9.43;;;4.00;99.90;;;;;;5074777;28;20288;-74
2020/12/08 08:13:43;;;;;;;15.03;9.13;;;3.90;99.90;;;;;;5065364;28;20618;-74
2020/12/08 08:16:10;;;;;;;16.67;10.07;;;4.10;99.90;;;;;;5051873;28;20195;-74
2020/12/08 08:18:38;;;;;;;16.80;10.07;;;4.10;99.90;;;;;;5068643;28;20283;-74
2020/12/08 08:21:05;;;;;;;18.07;10.77;;;4.20;99.90;;;;;;5068240;28;20717;-74
2020/12/08 08:23:32;;;;;;;19.67;11.30;;;4.10;99.90;;;;;;5070604;28;20259;-75
2020/12/08 08:25:59;;;;;;;18.90;11.10;;;4.20;99.90;;;;;;5045902;28;20207;-74
2020/12/08 08:28:25;;;;;;;16.60;10.50;;;4.10;99.90;;;;;;5087972;28;20264;-74
2020/12/08 08:30:52;;;;;;;20.00;10.67;;;4.10;99.90;;;;;;5047292;28;20291;-74
2020/12/08 08:33:19;;;;;;;17.63;10.67;;;4.10;99.90;;;;;;5065432;28;20212;-74
2020/12/08 08:35:45;;;;;;;19.43;11.60;;;4.00;99.90;;;;;;5038674;28;20791;-74
2020/12/08 08:38:11;;;;;;;16.23;10.37;;;3.90;99.90;;;;;;5069084;28;20207;-75
2020/12/08 08:40:38;;;;;;;17.57;10.20;;;4.00;99.90;;;;;;5063659;28;20222;-74
2020/12/08 08:43:05;;;;;;;15.90;9.43;;;4.10;99.90;;;;;;5068716;28;20637;-74
2020/12/08 08:45:31;;;;;;;20.30;10.50;;;4.20;99.90;;;;;;5062813;28;20312;-73
2020/12/08 08:47:57;;;;;;;19.03;10.93;;;4.20;99.90;;;;;;5069329;28;20268;-73
2020/12/08 08:50:24;;;;;;;19.17;11.23;;;4.20;99.90;;;;;;5052462;28;20304;-73
2020/12/08 08:52:50;;;;;;;18.07;11.30;;;4.10;99.90;;;;;;5031303;28;20203;-74
2020/12/08 08:55:16;;;;;;;16.57;11.13;;;4.00;99.90;;;;;;5078718;28;20308;-74
2020/12/08 08:57:44;;;;;;;21.17;11.50;;;4.00;99.90;;;;;;5065701;28;20284;-75
2020/12/08 09:00:11;;;;;;;20.43;11.20;;;4.00;99.90;;;;;;5061508;28;20564;-74
2020/12/08 09:02:38;;;;;;;22.10;10.87;;;4.10;99.90;;;;;;5065987;28;20203;-74
2020/12/08 09:05:06;;;;;;;18.30;10.30;;;4.20;99.90;;;;;;5051874;28;20556;-73
2020/12/08 09:07:33;;;;;;;22.97;10.63;;;4.20;99.90;;;;;;5066483;28;20708;-74
2020/12/08 09:10:00;;;;;;;24.67;11.07;;;4.30;99.90;;;;;;5069662;28;20260;-73
2020/12/08 09:12:26;;;;;;;21.17;11.53;;;4.30;99.90;;;;;;5059728;28;20619;-75
2020/12/08 09:14:57;;;;;;;18.87;11.00;;;4.40;99.90;;;;;;5082053;28;20225;-74
2020/12/08 09:17:23;;;;;;;17.60;10.43;;;4.50;99.90;;;;;;5082730;28;20605;-74
2020/12/08 09:19:51;;;;;;;20.63;10.93;;;4.60;99.90;;;;;;5047709;28;20251;-75
2020/12/08 09:22:17;;;;;;;16.47;10.53;;;4.70;99.90;;;;;;5087723;28;20571;-73
2020/12/08 09:24:43;;;;;;;18.03;11.07;;;4.70;99.90;;;;;;5067091;28;20230;-74
2020/12/08 09:27:12;;;;;;;15.53;10.23;;;4.70;99.90;;;;;;5066910;28;20267;-74
2020/12/08 09:29:38;;;;;;;19.20;10.70;;;4.80;99.90;;;;;;5054087;28;20263;-72
2020/12/08 09:32:05;;;;;;;16.30;11.17;;;4.90;99.90;;;;;;5062546;28;20195;-73
2020/12/08 09:34:31;;;;;;;18.63;10.60;;;4.90;99.90;;;;;;5028266;28;20305;-74
2020/12/08 09:37:00;;;;;;;19.57;10.83;;;5.00;99.90;;;;;;5067852;28;20272;-73
2020/12/08 09:39:27;;;;;;;16.20;9.90;;;5.00;99.90;;;;;;5083004;28;20219;-74
2020/12/08 09:41:54;;;;;;;17.33;10.53;;;5.00;99.90;;;;;;5066657;28;21517;-73
2020/12/08 09:44:21;;;;;;;18.43;10.90;;;4.90;99.90;;;;;;5055129;28;20199;-73
2020/12/08 09:46:47;;;;;;;21.20;10.23;;;4.90;99.90;;;;;;5068655;28;20198;-71
2020/12/08 09:49:14;;;;;;;18.70;10.57;;;5.00;99.90;;;;;;5069253;28;20713;-72
2020/12/08 09:51:40;;;;;;;15.47;10.73;;;5.00;99.90;;;;;;5087448;28;21029;-72
2020/12/08 09:54:07;;;;;;;19.10;11.27;;;4.90;99.90;;;;;;5048985;28;20672;-73
2020/12/08 09:56:33;;;;;;;18.00;10.83;;;4.90;99.90;;;;;;5087238;28;20222;-73
2020/12/08 09:59:00;;;;;;;17.93;10.57;;;4.90;99.90;;;;;;5041772;28;20224;-72
2020/12/08 10:01:30;;;;;;;22.03;12.17;;;4.90;99.90;;;;;;5082799;28;20276;-74
2020/12/08 10:03:57;;;;;;;21.93;12.20;;;4.80;99.90;;;;;;5051456;28;20203;-73
2020/12/08 10:06:24;;;;;;;18.97;10.43;;;4.80;99.90;;;;;;5068436;28;20295;-73
2020/12/08 10:08:54;;;;;;;18.17;11.13;;;4.80;99.90;;;;;;5083823;28;20326;-73
2020/12/08 10:11:22;;;;;;;18.40;10.27;;;4.80;99.90;;;;;;5052355;28;20238;-73
2020/12/08 10:13:51;;;;;;;18.30;10.77;;;4.90;99.90;;;;;;5060288;28;20324;-73
2020/12/08 10:16:19;;;;;;;21.50;11.27;;;5.10;99.90;;;;;;5060489;28;20220;-73
2020/12/08 10:18:47;;;;;;;20.37;11.73;;;5.10;99.90;;;;;;5039783;28;20297;-74
2020/12/08 10:21:17;;;;;;;16.97;10.13;;;5.20;99.90;;;;;;5060582;28;20285;-73
2020/12/08 10:23:43;;;;;;;15.57;10.30;;;5.10;99.90;;;;;;5087385;28;20208;-73
2020/12/08 10:26:10;;;;;;;18.83;11.20;;;5.10;99.90;;;;;;5038860;28;20228;-73
2020/12/08 10:28:37;;;;;;;17.40;11.37;;;5.20;99.90;;;;;;5064503;28;20215;-73
2020/12/08 10:31:04;;;;;;;15.50;10.37;;;5.30;99.90;;;;;;5069570;28;20195;-72
2020/12/08 10:33:30;;;;;;;14.93;9.70;;;5.40;99.90;;;;;;5048839;28;20219;-73
2020/12/08 10:35:58;;;;;;;17.13;10.47;;;5.50;99.90;;;;;;5048933;28;20212;-73
2020/12/08 10:38:25;;;;;;;19.87;11.20;;;5.50;99.90;;;;;;5075726;28;20237;-73
2020/12/08 10:40:51;;;;;;;18.43;10.40;;;5.60;99.90;;;;;;5037086;28;20529;-73
2020/12/08 10:43:19;;;;;;;19.07;11.33;;;5.60;99.90;;;;;;5065204;28;20305;-73
2020/12/08 10:46:02;;;;;;;18.50;11.20;;;5.80;99.90;;;;;;5073161;28;20305;-72
2020/12/08 10:48:28;;;;;;;20.17;11.30;;;6.10;99.90;;;;;;5049241;28;20231;-73
2020/12/08 10:50:55;;;;;;;21.77;11.13;;;6.00;99.90;;;;;;5044887;28;20204;-74
2020/12/08 10:53:21;;;;;;;17.93;11.33;;;5.90;99.90;;;;;;5090711;28;20234;-74
2020/12/08 10:55:48;;;;;;;16.87;10.60;;;5.70;99.90;;;;;;5063651;28;20273;-74
2020/12/08 10:58:14;;;;;;;17.77;10.93;;;5.60;99.90;;;;;;5043276;28;20211;-73
2020/12/08 11:00:40;;;;;;;18.60;10.57;;;5.70;99.90;;;;;;5054042;28;20202;-74
2020/12/08 11:03:07;;;;;;;16.03;10.33;;;5.80;99.90;;;;;;5084582;28;20204;-73
2020/12/08 11:05:33;;;;;;;17.10;10.00;;;5.70;99.90;;;;;;5051583;28;20213;-74
2020/12/08 11:08:00;;;;;;;20.40;10.97;;;5.80;99.90;;;;;;5042588;28;20227;-73
2020/12/08 11:10:26;;;;;;;22.13;10.50;;;5.90;99.90;;;;;;5053619;28;20194;-73
2020/12/08 11:12:53;;;;;;;15.90;10.17;;;5.90;99.90;;;;;;5058264;28;20498;-74
2020/12/08 11:15:21;;;;;;;16.27;9.67;;;6.10;99.90;;;;;;5055842;28;20226;-73
2020/12/08 11:17:47;;;;;;;19.70;10.63;;;6.00;99.90;;;;;;5090291;28;20281;-74
2020/12/08 11:20:14;;;;;;;16.07;10.63;;;6.00;99.90;;;;;;5075037;28;20251;-74
2020/12/08 11:22:40;;;;;;;17.07;10.53;;;5.90;99.90;;;;;;5067941;28;20249;-73
2020/12/08 11:25:06;;;;;;;15.67;9.67;;;6.10;99.90;;;;;;5066747;28;20240;-73
2020/12/08 11:27:33;;;;;;;17.47;10.53;;;6.20;99.90;;;;;;5069313;28;20213;-74
2020/12/08 11:30:00;;;;;;;15.47;10.23;;;6.30;99.90;;;;;;5079243;28;20192;-73
2020/12/08 11:32:27;;;;;;;15.90;10.47;;;6.50;99.90;;;;;;5066223;28;20203;-73
2020/12/08 11:34:53;;;;;;;18.13;10.20;;;6.50;99.90;;;;;;5053013;28;20247;-73
2020/12/08 11:37:20;;;;;;;15.70;10.77;;;6.70;99.90;;;;;;5069097;28;20206;-73
2020/12/08 11:39:46;;;;;;;17.03;11.07;;;6.80;99.90;;;;;;5065719;28;20220;-74
2020/12/08 11:42:14;;;;;;;16.77;10.10;;;6.90;99.90;;;;;;5058367;28;20227;-73
2020/12/08 11:44:46;;;;;;;18.70;10.03;;;6.70;99.90;;;;;;5065432;28;20594;-73
2020/12/08 11:47:14;;;;;;;13.73;8.70;;;6.70;99.90;;;;;;5046586;28;20220;-73
2020/12/08 11:49:41;;;;;;;20.07;10.53;;;6.50;99.90;;;;;;5087812;28;20204;-73
2020/12/08 11:52:12;;;;;;;15.03;10.00;;;6.70;99.90;;;;;;5069299;28;20630;-73
2020/12/08 11:54:39;;;;;;;17.37;9.90;;;6.90;99.90;;;;;;5071753;28;20261;-73
2020/12/08 11:57:06;;;;;;;18.03;9.93;;;7.00;99.90;;;;;;5068429;28;20205;-73
2020/12/08 11:59:33;;;;;;;14.27;9.90;;;6.90;99.90;;;;;;5082681;28;20214;-75
2020/12/08 12:01:59;;;;;;;13.27;9.07;;;6.60;99.90;;;;;;5070448;28;20223;-73
2020/12/08 12:04:26;;;;;;;16.47;10.07;;;6.70;99.90;;;;;;5084025;28;20205;-74
2020/12/08 12:06:52;;;;;;;16.03;10.13;;;6.90;99.90;;;;;;5050902;28;20618;-74
2020/12/08 12:09:19;;;;;;;16.30;9.80;;;6.90;99.90;;;;;;5057271;28;20208;-74
2020/12/08 12:11:45;;;;;;;14.57;10.20;;;6.90;99.90;;;;;;5055940;28;20263;-74
2020/12/08 12:14:13;;;;;;;16.73;9.63;;;6.90;99.90;;;;;;5071578;28;20197;-73
2020/12/08 12:16:39;;;;;;;13.83;9.23;;;6.80;99.90;;;;;;5052756;28;20532;-75
2020/12/08 12:19:05;;;;;;;18.07;10.13;;;6.70;99.90;;;;;;5070239;28;20208;-73
2020/12/08 12:21:32;;;;;;;14.70;9.53;;;6.70;99.90;;;;;;5066563;28;20287;-73
2020/12/08 12:23:58;;;;;;;16.23;10.33;;;6.80;99.90;;;;;;5083366;28;20212;-75
2020/12/08 12:26:41;;;;;;;13.53;9.73;;;7.00;99.90;;;;;;5079188;28;21955;-74
2020/12/08 12:29:07;;;;;;;16.07;9.40;;;7.10;99.90;;;;;;5087685;28;20695;-74
2020/12/08 12:31:34;;;;;;;13.03;8.90;;;7.20;99.90;;;;;;5068785;28;20198;-73
2020/12/08 12:34:00;;;;;;;15.27;9.13;;;7.30;99.90;;;;;;5079725;28;20238;-76
2020/12/08 12:36:26;;;;;;;15.00;9.67;;;7.40;99.90;;;;;;5078810;28;20601;-75
2020/12/08 12:38:52;;;;;;;15.00;9.17;;;7.40;99.90;;;;;;5052665;28;20234;-74
2020/12/08 12:41:27;;;;;;;13.77;8.60;;;7.40;99.90;;;;;;5083851;28;20739;-73
2020/12/08 12:43:54;;;;;;;14.77;9.67;;;7.30;99.90;;;;;;5068173;28;20214;-73
2020/12/08 12:46:20;;;;;;;16.00;9.93;;;7.20;99.90;;;;;;5088199;28;20198;-73